sensor_id;sensor_type;location;lat;lon;timestamp;temperature;humidity
2935;DHT22;2462;51.456;7.248;2022-07-29T00:00:11;19.80;98.10
2935;DHT22;2462;51.456;7.248;2022-07-29T00:02:37;19.80;98.00
2935;DHT22;2462;51.456;7.248;2022-07-29T00:05:04;19.80;98.00
2935;DHT22;2462;51.456;7.248;2022-07-29T00:07:30;19.80;97.80
2935;DHT22;2462;51.456;7.248;2022-07-29T00:09:56;19.80;98.00
2935;DHT22;2462;51.456;7.248;2022-07-29T00:12:23;19.80;98.40
2935;DHT22;2462;51.456;7.248;2022-07-29T00:14:49;19.80;98.10
2935;DHT22;2462;51.456;7.248;2022-07-29T00:17:15;19.80;98.10
2935;DHT22;2462;51.456;7.248;2022-07-29T00:19:40;19.70;98.00
2935;DHT22;2462;51.456;7.248;2022-07-29T00:22:06;19.70;98.00
2935;DHT22;2462;51.456;7.248;2022-07-29T00:24:31;19.70;98.00
2935;DHT22;2462;51.456;7.248;2022-07-29T00:26:57;19.70;98.00
2935;DHT22;2462;51.456;7.248;2022-07-29T00:29:22;19.70;97.90
2935;DHT22;2462;51.456;7.248;2022-07-29T00:31:48;19.60;97.90
2935;DHT22;2462;51.456;7.248;2022-07-29T00:34:14;19.60;98.00
2935;DHT22;2462;51.456;7.248;2022-07-29T00:36:58;19.60;98.00
2935;DHT22;2462;51.456;7.248;2022-07-29T00:39:24;19.60;98.10
2935;DHT22;2462;51.456;7.248;2022-07-29T00:41:50;19.60;98.20
2935;DHT22;2462;51.456;7.248;2022-07-29T00:44:15;19.60;98.20
2935;DHT22;2462;51.456;7.248;2022-07-29T00:46:41;19.60;98.30
2935;DHT22;2462;51.456;7.248;2022-07-29T00:49:07;19.60;98.30
2935;DHT22;2462;51.456;7.248;2022-07-29T00:51:35;19.60;98.40
2935;DHT22;2462;51.456;7.248;2022-07-29T00:54:02;19.60;98.60
2935;DHT22;2462;51.456;7.248;2022-07-29T00:56:30;19.60;98.40
2935;DHT22;2462;51.456;7.248;2022-07-29T00:58:56;19.50;98.30
2935;DHT22;2462;51.456;7.248;2022-07-29T01:01:23;19.50;98.30
2935;DHT22;2462;51.456;7.248;2022-07-29T01:03:48;19.50;98.40
2935;DHT22;2462;51.456;7.248;2022-07-29T01:06:16;19.50;98.40
2935;DHT22;2462;51.456;7.248;2022-07-29T01:08:42;19.50;98.40
2935;DHT22;2462;51.456;7.248;2022-07-29T01:11:08;19.50;98.40
2935;DHT22;2462;51.456;7.248;2022-07-29T01:13:34;19.50;98.30
2935;DHT22;2462;51.456;7.248;2022-07-29T01:16:13;19.50;98.30
2935;DHT22;2462;51.456;7.248;2022-07-29T01:18:44;19.40;98.10
2935;DHT22;2462;51.456;7.248;2022-07-29T01:34:47;19.40;98.80
2935;DHT22;2462;51.456;7.248;2022-07-29T01:40:16;19.40;98.80
2935;DHT22;2462;51.456;7.248;2022-07-29T01:42:44;19.30;98.70
2935;DHT22;2462;51.456;7.248;2022-07-29T01:45:17;19.30;98.70
2935;DHT22;2462;51.456;7.248;2022-07-29T01:47:50;19.30;98.70
2935;DHT22;2462;51.456;7.248;2022-07-29T01:50:20;19.30;98.70
2935;DHT22;2462;51.456;7.248;2022-07-29T01:52:56;19.30;98.80
2935;DHT22;2462;51.456;7.248;2022-07-29T01:55:28;19.30;98.80
2935;DHT22;2462;51.456;7.248;2022-07-29T01:57:56;19.20;98.80
2935;DHT22;2462;51.456;7.248;2022-07-29T02:00:23;19.20;98.80
2935;DHT22;2462;51.456;7.248;2022-07-29T02:02:49;19.20;98.90
2935;DHT22;2462;51.456;7.248;2022-07-29T02:05:18;19.20;98.90
2935;DHT22;2462;51.456;7.248;2022-07-29T02:07:46;19.20;99.00
2935;DHT22;2462;51.456;7.248;2022-07-29T02:10:13;19.10;99.00
2935;DHT22;2462;51.456;7.248;2022-07-29T02:12:42;19.10;99.10
2935;DHT22;2462;51.456;7.248;2022-07-29T02:15:09;19.10;99.10
2935;DHT22;2462;51.456;7.248;2022-07-29T02:17:42;19.10;99.10
2935;DHT22;2462;51.456;7.248;2022-07-29T02:20:09;19.10;99.10
2935;DHT22;2462;51.456;7.248;2022-07-29T02:22:38;19.10;99.20
2935;DHT22;2462;51.456;7.248;2022-07-29T02:25:05;19.10;99.30
2935;DHT22;2462;51.456;7.248;2022-07-29T02:27:33;19.10;99.40
2935;DHT22;2462;51.456;7.248;2022-07-29T02:30:01;19.10;99.70
2935;DHT22;2462;51.456;7.248;2022-07-29T02:32:27;19.10;99.90
2935;DHT22;2462;51.456;7.248;2022-07-29T02:34:54;19.00;99.90
2935;DHT22;2462;51.456;7.248;2022-07-29T02:37:21;19.00;99.90
2935;DHT22;2462;51.456;7.248;2022-07-29T02:39:48;18.90;99.90
2935;DHT22;2462;51.456;7.248;2022-07-29T02:42:16;19.00;99.90
2935;DHT22;2462;51.456;7.248;2022-07-29T02:44:42;19.00;99.90
2935;DHT22;2462;51.456;7.248;2022-07-29T02:47:44;19.00;99.90
2935;DHT22;2462;51.456;7.248;2022-07-29T02:50:16;18.90;99.90
2935;DHT22;2462;51.456;7.248;2022-07-29T02:52:43;18.90;99.90
2935;DHT22;2462;51.456;7.248;2022-07-29T02:55:37;18.90;99.90
2935;DHT22;2462;51.456;7.248;2022-07-29T02:58:38;18.90;99.90
2935;DHT22;2462;51.456;7.248;2022-07-29T03:01:13;18.90;99.90
2935;DHT22;2462;51.456;7.248;2022-07-29T03:03:42;18.90;99.90
2935;DHT22;2462;51.456;7.248;2022-07-29T03:06:09;18.90;99.90
2935;DHT22;2462;51.456;7.248;2022-07-29T03:08:37;18.90;99.90
2935;DHT22;2462;51.456;7.248;2022-07-29T03:11:03;18.90;99.90
2935;DHT22;2462;51.456;7.248;2022-07-29T03:13:30;18.90;99.90
2935;DHT22;2462;51.456;7.248;2022-07-29T03:15:57;18.90;99.90
2935;DHT22;2462;51.456;7.248;2022-07-29T03:18:23;18.80;99.90
2935;DHT22;2462;51.456;7.248;2022-07-29T03:20:49;18.80;99.90
2935;DHT22;2462;51.456;7.248;2022-07-29T03:23:21;18.80;99.90
2935;DHT22;2462;51.456;7.248;2022-07-29T03:25:49;18.80;99.90
2935;DHT22;2462;51.456;7.248;2022-07-29T03:28:15;18.80;99.90
2935;DHT22;2462;51.456;7.248;2022-07-29T03:30:41;18.80;99.90
2935;DHT22;2462;51.456;7.248;2022-07-29T03:33:06;18.80;99.90
2935;DHT22;2462;51.456;7.248;2022-07-29T03:35:32;18.80;99.90
2935;DHT22;2462;51.456;7.248;2022-07-29T03:37:58;18.70;99.90
2935;DHT22;2462;51.456;7.248;2022-07-29T03:40:38;18.80;99.90
2935;DHT22;2462;51.456;7.248;2022-07-29T03:43:06;18.70;99.90
2935;DHT22;2462;51.456;7.248;2022-07-29T03:45:34;18.70;99.90
2935;DHT22;2462;51.456;7.248;2022-07-29T03:48:05;18.70;99.90
2935;DHT22;2462;51.456;7.248;2022-07-29T03:50:33;18.70;99.90
2935;DHT22;2462;51.456;7.248;2022-07-29T03:52:59;18.70;99.90
2935;DHT22;2462;51.456;7.248;2022-07-29T03:55:25;18.70;99.90
2935;DHT22;2462;51.456;7.248;2022-07-29T03:57:51;18.70;99.90
2935;DHT22;2462;51.456;7.248;2022-07-29T04:00:17;18.70;99.90
2935;DHT22;2462;51.456;7.248;2022-07-29T04:02:43;18.70;99.90
2935;DHT22;2462;51.456;7.248;2022-07-29T04:05:14;18.70;99.90
2935;DHT22;2462;51.456;7.248;2022-07-29T04:07:43;18.70;99.90
2935;DHT22;2462;51.456;7.248;2022-07-29T04:10:08;18.70;99.90
2935;DHT22;2462;51.456;7.248;2022-07-29T04:12:34;18.70;99.90
2935;DHT22;2462;51.456;7.248;2022-07-29T04:15:00;18.70;99.90
2935;DHT22;2462;51.456;7.248;2022-07-29T04:17:26;18.60;99.90
2935;DHT22;2462;51.456;7.248;2022-07-29T04:19:52;18.70;99.90
2935;DHT22;2462;51.456;7.248;2022-07-29T04:22:17;18.60;99.90
2935;DHT22;2462;51.456;7.248;2022-07-29T04:24:43;18.70;99.90
2935;DHT22;2462;51.456;7.248;2022-07-29T04:27:08;18.70;99.90
2935;DHT22;2462;51.456;7.248;2022-07-29T04:29:34;18.70;99.90
2935;DHT22;2462;51.456;7.248;2022-07-29T04:31:59;18.60;99.90
2935;DHT22;2462;51.456;7.248;2022-07-29T04:34:25;18.70;99.90
2935;DHT22;2462;51.456;7.248;2022-07-29T04:36:50;18.60;99.90
2935;DHT22;2462;51.456;7.248;2022-07-29T04:39:16;18.60;99.90
2935;DHT22;2462;51.456;7.248;2022-07-29T04:41:43;18.60;99.90
2935;DHT22;2462;51.456;7.248;2022-07-29T04:44:08;18.60;99.90
2935;DHT22;2462;51.456;7.248;2022-07-29T04:46:35;18.60;99.90
2935;DHT22;2462;51.456;7.248;2022-07-29T04:49:01;18.60;99.90
2935;DHT22;2462;51.456;7.248;2022-07-29T04:51:26;18.60;99.90
2935;DHT22;2462;51.456;7.248;2022-07-29T04:53:52;18.60;99.90
2935;DHT22;2462;51.456;7.248;2022-07-29T04:56:18;18.60;99.90
2935;DHT22;2462;51.456;7.248;2022-07-29T04:58:43;18.60;99.90
2935;DHT22;2462;51.456;7.248;2022-07-29T05:01:09;18.60;99.90
2935;DHT22;2462;51.456;7.248;2022-07-29T05:03:34;18.60;99.90
2935;DHT22;2462;51.456;7.248;2022-07-29T05:06:00;18.60;99.90
2935;DHT22;2462;51.456;7.248;2022-07-29T05:08:25;18.60;99.90
2935;DHT22;2462;51.456;7.248;2022-07-29T05:10:51;18.60;99.90
2935;DHT22;2462;51.456;7.248;2022-07-29T05:13:16;18.60;99.90
2935;DHT22;2462;51.456;7.248;2022-07-29T05:15:42;18.60;99.90
2935;DHT22;2462;51.456;7.248;2022-07-29T05:18:07;18.60;99.90
2935;DHT22;2462;51.456;7.248;2022-07-29T05:20:33;18.60;99.90
2935;DHT22;2462;51.456;7.248;2022-07-29T05:23:00;18.60;99.90
2935;DHT22;2462;51.456;7.248;2022-07-29T05:25:27;18.60;99.90
2935;DHT22;2462;51.456;7.248;2022-07-29T05:27:53;18.60;99.90
2935;DHT22;2462;51.456;7.248;2022-07-29T05:30:19;18.60;99.90
2935;DHT22;2462;51.456;7.248;2022-07-29T05:32:45;18.60;99.90
2935;DHT22;2462;51.456;7.248;2022-07-29T05:35:11;18.60;99.90
2935;DHT22;2462;51.456;7.248;2022-07-29T05:37:37;18.60;99.90
2935;DHT22;2462;51.456;7.248;2022-07-29T05:40:03;18.60;99.90
2935;DHT22;2462;51.456;7.248;2022-07-29T05:42:29;18.60;99.90
2935;DHT22;2462;51.456;7.248;2022-07-29T05:44:55;18.60;99.90
2935;DHT22;2462;51.456;7.248;2022-07-29T05:47:21;18.60;99.90
2935;DHT22;2462;51.456;7.248;2022-07-29T05:49:47;18.60;99.90
2935;DHT22;2462;51.456;7.248;2022-07-29T05:52:12;18.70;99.90
2935;DHT22;2462;51.456;7.248;2022-07-29T05:54:41;18.70;99.90
2935;DHT22;2462;51.456;7.248;2022-07-29T05:57:06;18.70;99.90
2935;DHT22;2462;51.456;7.248;2022-07-29T05:59:36;18.70;99.90
2935;DHT22;2462;51.456;7.248;2022-07-29T06:02:02;18.70;99.90
2935;DHT22;2462;51.456;7.248;2022-07-29T06:04:27;18.70;99.90
2935;DHT22;2462;51.456;7.248;2022-07-29T06:06:53;18.70;99.90
2935;DHT22;2462;51.456;7.248;2022-07-29T06:09:19;18.70;99.90
2935;DHT22;2462;51.456;7.248;2022-07-29T06:11:44;18.70;99.90
2935;DHT22;2462;51.456;7.248;2022-07-29T06:14:10;18.70;99.90
2935;DHT22;2462;51.456;7.248;2022-07-29T06:16:36;18.70;99.90
2935;DHT22;2462;51.456;7.248;2022-07-29T06:19:02;18.70;99.90
2935;DHT22;2462;51.456;7.248;2022-07-29T06:21:28;18.70;99.90
2935;DHT22;2462;51.456;7.248;2022-07-29T06:23:53;18.80;99.90
2935;DHT22;2462;51.456;7.248;2022-07-29T06:26:19;18.80;99.90
2935;DHT22;2462;51.456;7.248;2022-07-29T06:28:44;18.80;99.90
2935;DHT22;2462;51.456;7.248;2022-07-29T06:31:10;18.80;99.90
2935;DHT22;2462;51.456;7.248;2022-07-29T06:33:35;18.80;99.90
2935;DHT22;2462;51.456;7.248;2022-07-29T06:36:04;18.80;99.90
2935;DHT22;2462;51.456;7.248;2022-07-29T06:38:29;18.80;99.90
2935;DHT22;2462;51.456;7.248;2022-07-29T06:40:55;18.80;99.90
2935;DHT22;2462;51.456;7.248;2022-07-29T06:43:36;18.80;99.90
2935;DHT22;2462;51.456;7.248;2022-07-29T06:46:08;18.80;99.90
2935;DHT22;2462;51.456;7.248;2022-07-29T06:48:34;18.80;99.90
2935;DHT22;2462;51.456;7.248;2022-07-29T06:51:02;18.80;99.90
2935;DHT22;2462;51.456;7.248;2022-07-29T06:53:29;18.80;99.90
2935;DHT22;2462;51.456;7.248;2022-07-29T06:55:54;18.80;99.90
2935;DHT22;2462;51.456;7.248;2022-07-29T06:58:20;18.80;99.90
2935;DHT22;2462;51.456;7.248;2022-07-29T07:00:48;18.70;99.90
2935;DHT22;2462;51.456;7.248;2022-07-29T07:03:15;18.80;99.90
2935;DHT22;2462;51.456;7.248;2022-07-29T07:05:41;18.80;99.90
2935;DHT22;2462;51.456;7.248;2022-07-29T07:08:06;18.80;99.90
2935;DHT22;2462;51.456;7.248;2022-07-29T07:10:33;18.80;99.90
2935;DHT22;2462;51.456;7.248;2022-07-29T07:13:00;18.80;99.90
2935;DHT22;2462;51.456;7.248;2022-07-29T07:15:26;18.90;99.90
2935;DHT22;2462;51.456;7.248;2022-07-29T07:17:52;18.90;99.90
2935;DHT22;2462;51.456;7.248;2022-07-29T07:20:18;19.00;99.90
2935;DHT22;2462;51.456;7.248;2022-07-29T07:22:44;19.00;99.90
2935;DHT22;2462;51.456;7.248;2022-07-29T07:25:10;19.00;99.90
2935;DHT22;2462;51.456;7.248;2022-07-29T07:27:36;19.10;99.90
2935;DHT22;2462;51.456;7.248;2022-07-29T07:30:06;19.20;99.90
2935;DHT22;2462;51.456;7.248;2022-07-29T07:32:35;19.20;99.90
2935;DHT22;2462;51.456;7.248;2022-07-29T07:35:01;19.20;99.90
2935;DHT22;2462;51.456;7.248;2022-07-29T07:37:27;19.30;99.90
2935;DHT22;2462;51.456;7.248;2022-07-29T07:39:52;19.30;99.90
2935;DHT22;2462;51.456;7.248;2022-07-29T07:42:19;19.50;99.90
2935;DHT22;2462;51.456;7.248;2022-07-29T07:44:44;19.30;99.90
2935;DHT22;2462;51.456;7.248;2022-07-29T07:47:14;19.30;99.90
2935;DHT22;2462;51.456;7.248;2022-07-29T07:49:40;19.30;99.90
2935;DHT22;2462;51.456;7.248;2022-07-29T07:52:06;19.30;99.90
2935;DHT22;2462;51.456;7.248;2022-07-29T07:54:32;19.30;99.90
2935;DHT22;2462;51.456;7.248;2022-07-29T07:56:57;19.30;99.90
2935;DHT22;2462;51.456;7.248;2022-07-29T07:59:23;19.40;99.90
2935;DHT22;2462;51.456;7.248;2022-07-29T08:01:49;19.30;99.90
2935;DHT22;2462;51.456;7.248;2022-07-29T08:04:15;19.30;99.90
2935;DHT22;2462;51.456;7.248;2022-07-29T08:06:40;19.40;99.90
2935;DHT22;2462;51.456;7.248;2022-07-29T08:09:06;19.40;99.90
2935;DHT22;2462;51.456;7.248;2022-07-29T08:11:32;19.40;99.90
2935;DHT22;2462;51.456;7.248;2022-07-29T08:13:57;19.40;99.90
2935;DHT22;2462;51.456;7.248;2022-07-29T08:16:23;19.40;99.90
2935;DHT22;2462;51.456;7.248;2022-07-29T08:18:50;19.50;99.90
2935;DHT22;2462;51.456;7.248;2022-07-29T08:21:16;19.50;99.90
2935;DHT22;2462;51.456;7.248;2022-07-29T08:23:44;19.50;99.90
2935;DHT22;2462;51.456;7.248;2022-07-29T08:26:19;19.50;99.90
2935;DHT22;2462;51.456;7.248;2022-07-29T08:28:46;19.50;99.90
2935;DHT22;2462;51.456;7.248;2022-07-29T08:31:15;19.60;99.90
2935;DHT22;2462;51.456;7.248;2022-07-29T08:33:41;19.60;99.90
2935;DHT22;2462;51.456;7.248;2022-07-29T08:36:07;19.60;99.90
2935;DHT22;2462;51.456;7.248;2022-07-29T08:38:33;19.60;99.90
2935;DHT22;2462;51.456;7.248;2022-07-29T08:41:00;19.60;99.90
2935;DHT22;2462;51.456;7.248;2022-07-29T08:43:27;19.60;99.90
2935;DHT22;2462;51.456;7.248;2022-07-29T08:45:53;19.60;99.90
2935;DHT22;2462;51.456;7.248;2022-07-29T08:48:22;19.60;99.90
2935;DHT22;2462;51.456;7.248;2022-07-29T08:50:50;19.70;99.90
2935;DHT22;2462;51.456;7.248;2022-07-29T08:53:18;19.70;99.90
2935;DHT22;2462;51.456;7.248;2022-07-29T08:55:48;19.70;99.90
2935;DHT22;2462;51.456;7.248;2022-07-29T08:58:15;19.70;99.90
2935;DHT22;2462;51.456;7.248;2022-07-29T09:00:43;19.70;99.90
2935;DHT22;2462;51.456;7.248;2022-07-29T09:03:12;19.70;99.90
2935;DHT22;2462;51.456;7.248;2022-07-29T09:05:42;19.70;99.90
2935;DHT22;2462;51.456;7.248;2022-07-29T09:08:08;19.70;99.90
2935;DHT22;2462;51.456;7.248;2022-07-29T09:10:37;19.70;99.90
2935;DHT22;2462;51.456;7.248;2022-07-29T09:13:03;19.70;99.90
2935;DHT22;2462;51.456;7.248;2022-07-29T09:15:28;19.70;99.90
2935;DHT22;2462;51.456;7.248;2022-07-29T09:17:54;19.70;99.90
2935;DHT22;2462;51.456;7.248;2022-07-29T09:20:21;19.70;99.90
2935;DHT22;2462;51.456;7.248;2022-07-29T09:22:48;19.70;99.90
2935;DHT22;2462;51.456;7.248;2022-07-29T09:25:31;19.70;99.90
2935;DHT22;2462;51.456;7.248;2022-07-29T09:28:09;19.70;99.90
2935;DHT22;2462;51.456;7.248;2022-07-29T09:30:35;19.70;99.90
2935;DHT22;2462;51.456;7.248;2022-07-29T09:33:02;19.70;99.90
2935;DHT22;2462;51.456;7.248;2022-07-29T09:35:30;19.70;99.90
2935;DHT22;2462;51.456;7.248;2022-07-29T09:37:56;19.70;99.90
2935;DHT22;2462;51.456;7.248;2022-07-29T09:40:26;19.70;99.90
2935;DHT22;2462;51.456;7.248;2022-07-29T09:42:52;19.70;99.90
2935;DHT22;2462;51.456;7.248;2022-07-29T09:45:30;19.70;99.90
2935;DHT22;2462;51.456;7.248;2022-07-29T09:47:56;19.70;99.90
2935;DHT22;2462;51.456;7.248;2022-07-29T09:50:40;19.70;99.90
2935;DHT22;2462;51.456;7.248;2022-07-29T09:53:07;19.70;99.90
2935;DHT22;2462;51.456;7.248;2022-07-29T09:55:49;19.70;99.90
2935;DHT22;2462;51.456;7.248;2022-07-29T09:58:20;19.70;99.90
2935;DHT22;2462;51.456;7.248;2022-07-29T10:00:47;19.60;99.90
2935;DHT22;2462;51.456;7.248;2022-07-29T10:03:14;19.70;99.90
2935;DHT22;2462;51.456;7.248;2022-07-29T10:05:41;19.60;99.90
2935;DHT22;2462;51.456;7.248;2022-07-29T10:08:07;19.70;99.90
2935;DHT22;2462;51.456;7.248;2022-07-29T10:10:36;19.70;99.90
2935;DHT22;2462;51.456;7.248;2022-07-29T10:13:07;19.60;99.90
2935;DHT22;2462;51.456;7.248;2022-07-29T10:15:35;19.60;99.90
2935;DHT22;2462;51.456;7.248;2022-07-29T10:18:06;19.60;99.90
2935;DHT22;2462;51.456;7.248;2022-07-29T10:23:04;19.60;99.90
2935;DHT22;2462;51.456;7.248;2022-07-29T10:25:29;19.60;99.90
2935;DHT22;2462;51.456;7.248;2022-07-29T10:27:55;19.60;99.90
2935;DHT22;2462;51.456;7.248;2022-07-29T10:30:23;19.60;99.90
2935;DHT22;2462;51.456;7.248;2022-07-29T10:33:08;19.60;99.90
2935;DHT22;2462;51.456;7.248;2022-07-29T10:41:39;19.60;99.90
2935;DHT22;2462;51.456;7.248;2022-07-29T10:44:17;19.60;99.90
2935;DHT22;2462;51.456;7.248;2022-07-29T10:46:44;19.60;99.90
2935;DHT22;2462;51.456;7.248;2022-07-29T10:49:18;19.60;99.90
2935;DHT22;2462;51.456;7.248;2022-07-29T10:51:52;19.60;99.90
2935;DHT22;2462;51.456;7.248;2022-07-29T10:54:20;19.60;99.90
2935;DHT22;2462;51.456;7.248;2022-07-29T11:05:03;19.60;99.90
2935;DHT22;2462;51.456;7.248;2022-07-29T11:07:30;19.60;99.90
2935;DHT22;2462;51.456;7.248;2022-07-29T11:15:13;19.50;99.90
2935;DHT22;2462;51.456;7.248;2022-07-29T11:20:53;19.50;99.90
2935;DHT22;2462;51.456;7.248;2022-07-29T11:25:45;19.50;99.90
2935;DHT22;2462;51.456;7.248;2022-07-29T11:28:17;19.50;99.90
2935;DHT22;2462;51.456;7.248;2022-07-29T11:30:51;19.50;99.90
2935;DHT22;2462;51.456;7.248;2022-07-29T11:33:30;19.50;99.90
2935;DHT22;2462;51.456;7.248;2022-07-29T11:36:22;19.50;99.90
2935;DHT22;2462;51.456;7.248;2022-07-29T11:38:48;19.60;99.90
2935;DHT22;2462;51.456;7.248;2022-07-29T11:41:26;19.60;99.90
2935;DHT22;2462;51.456;7.248;2022-07-29T11:43:59;19.60;99.90
2935;DHT22;2462;51.456;7.248;2022-07-29T11:47:00;19.60;99.90
2935;DHT22;2462;51.456;7.248;2022-07-29T11:49:26;19.70;99.90
2935;DHT22;2462;51.456;7.248;2022-07-29T11:51:53;19.70;99.90
2935;DHT22;2462;51.456;7.248;2022-07-29T11:54:28;19.70;99.90
2935;DHT22;2462;51.456;7.248;2022-07-29T11:56:57;19.80;99.90
2935;DHT22;2462;51.456;7.248;2022-07-29T11:59:24;19.80;99.90
2935;DHT22;2462;51.456;7.248;2022-07-29T12:01:54;19.80;99.90
2935;DHT22;2462;51.456;7.248;2022-07-29T12:04:20;19.90;99.90
2935;DHT22;2462;51.456;7.248;2022-07-29T12:06:50;20.00;99.90
2935;DHT22;2462;51.456;7.248;2022-07-29T12:09:16;20.00;99.90
2935;DHT22;2462;51.456;7.248;2022-07-29T12:11:43;20.10;99.90
2935;DHT22;2462;51.456;7.248;2022-07-29T12:14:08;20.10;99.90
2935;DHT22;2462;51.456;7.248;2022-07-29T12:16:36;20.20;99.90
2935;DHT22;2462;51.456;7.248;2022-07-29T12:19:03;20.20;99.90
2935;DHT22;2462;51.456;7.248;2022-07-29T12:21:51;20.30;99.90
2935;DHT22;2462;51.456;7.248;2022-07-29T12:24:15;20.30;99.90
2935;DHT22;2462;51.456;7.248;2022-07-29T12:26:55;20.30;99.90
2935;DHT22;2462;51.456;7.248;2022-07-29T12:29:21;20.30;99.90
2935;DHT22;2462;51.456;7.248;2022-07-29T12:31:52;20.30;99.90
2935;DHT22;2462;51.456;7.248;2022-07-29T12:34:22;20.40;99.90
2935;DHT22;2462;51.456;7.248;2022-07-29T12:36:48;20.40;99.90
2935;DHT22;2462;51.456;7.248;2022-07-29T12:39:16;20.50;99.90
2935;DHT22;2462;51.456;7.248;2022-07-29T12:41:42;20.50;99.90
2935;DHT22;2462;51.456;7.248;2022-07-29T12:44:08;20.50;99.90
2935;DHT22;2462;51.456;7.248;2022-07-29T12:46:33;20.50;99.90
2935;DHT22;2462;51.456;7.248;2022-07-29T12:48:59;20.60;99.90
2935;DHT22;2462;51.456;7.248;2022-07-29T12:51:38;20.70;99.90
2935;DHT22;2462;51.456;7.248;2022-07-29T12:56:36;20.80;99.90
2935;DHT22;2462;51.456;7.248;2022-07-29T12:59:19;20.90;99.90
2935;DHT22;2462;51.456;7.248;2022-07-29T13:01:47;21.00;99.90
2935;DHT22;2462;51.456;7.248;2022-07-29T13:04:31;21.00;99.90
2935;DHT22;2462;51.456;7.248;2022-07-29T13:07:07;21.00;99.90
2935;DHT22;2462;51.456;7.248;2022-07-29T13:09:43;21.10;99.90
2935;DHT22;2462;51.456;7.248;2022-07-29T13:12:11;21.10;99.90
2935;DHT22;2462;51.456;7.248;2022-07-29T13:17:06;21.20;99.90
2935;DHT22;2462;51.456;7.248;2022-07-29T13:19:36;21.20;99.90
2935;DHT22;2462;51.456;7.248;2022-07-29T13:22:03;21.20;99.90
2935;DHT22;2462;51.456;7.248;2022-07-29T13:24:28;21.20;99.90
2935;DHT22;2462;51.456;7.248;2022-07-29T13:26:54;21.20;99.90
2935;DHT22;2462;51.456;7.248;2022-07-29T13:29:19;21.30;99.90
2935;DHT22;2462;51.456;7.248;2022-07-29T13:31:45;21.30;99.90
2935;DHT22;2462;51.456;7.248;2022-07-29T13:34:11;21.30;99.90
2935;DHT22;2462;51.456;7.248;2022-07-29T13:36:36;21.40;99.90
2935;DHT22;2462;51.456;7.248;2022-07-29T13:39:02;21.50;99.90
2935;DHT22;2462;51.456;7.248;2022-07-29T13:41:28;21.50;99.90
2935;DHT22;2462;51.456;7.248;2022-07-29T13:43:54;21.50;99.90
2935;DHT22;2462;51.456;7.248;2022-07-29T13:46:20;21.60;99.90
2935;DHT22;2462;51.456;7.248;2022-07-29T13:48:45;21.60;99.90
2935;DHT22;2462;51.456;7.248;2022-07-29T13:51:11;21.60;99.90
2935;DHT22;2462;51.456;7.248;2022-07-29T13:53:36;21.60;99.90
2935;DHT22;2462;51.456;7.248;2022-07-29T13:56:02;21.60;99.90
2935;DHT22;2462;51.456;7.248;2022-07-29T13:58:28;21.60;99.90
2935;DHT22;2462;51.456;7.248;2022-07-29T14:00:53;21.70;99.90
2935;DHT22;2462;51.456;7.248;2022-07-29T14:03:19;21.60;99.90
2935;DHT22;2462;51.456;7.248;2022-07-29T14:05:45;21.70;99.90
2935;DHT22;2462;51.456;7.248;2022-07-29T14:08:11;21.80;99.90
2935;DHT22;2462;51.456;7.248;2022-07-29T14:10:36;21.90;99.90
2935;DHT22;2462;51.456;7.248;2022-07-29T14:13:02;21.90;99.90
2935;DHT22;2462;51.456;7.248;2022-07-29T14:15:27;22.00;99.90
2935;DHT22;2462;51.456;7.248;2022-07-29T14:17:53;22.10;99.90
2935;DHT22;2462;51.456;7.248;2022-07-29T14:20:19;22.20;99.90
2935;DHT22;2462;51.456;7.248;2022-07-29T14:22:44;22.20;99.90
2935;DHT22;2462;51.456;7.248;2022-07-29T14:25:10;22.30;99.90
2935;DHT22;2462;51.456;7.248;2022-07-29T14:27:35;22.40;99.90
2935;DHT22;2462;51.456;7.248;2022-07-29T14:30:01;22.40;99.90
2935;DHT22;2462;51.456;7.248;2022-07-29T14:32:27;22.40;99.90
2935;DHT22;2462;51.456;7.248;2022-07-29T14:34:52;22.50;99.90
2935;DHT22;2462;51.456;7.248;2022-07-29T14:37:18;22.60;99.90
2935;DHT22;2462;51.456;7.248;2022-07-29T14:39:43;22.60;99.90
2935;DHT22;2462;51.456;7.248;2022-07-29T14:42:10;22.70;99.90
2935;DHT22;2462;51.456;7.248;2022-07-29T14:44:36;22.70;99.90
2935;DHT22;2462;51.456;7.248;2022-07-29T14:47:01;22.80;99.90
2935;DHT22;2462;51.456;7.248;2022-07-29T14:49:27;22.90;99.90
2935;DHT22;2462;51.456;7.248;2022-07-29T14:51:52;22.90;99.90
2935;DHT22;2462;51.456;7.248;2022-07-29T14:54:18;23.00;99.90
2935;DHT22;2462;51.456;7.248;2022-07-29T14:56:44;23.00;99.90
2935;DHT22;2462;51.456;7.248;2022-07-29T14:59:09;23.10;99.90
2935;DHT22;2462;51.456;7.248;2022-07-29T15:01:35;23.10;99.90
2935;DHT22;2462;51.456;7.248;2022-07-29T15:04:00;23.10;99.90
2935;DHT22;2462;51.456;7.248;2022-07-29T15:06:26;23.20;99.90
2935;DHT22;2462;51.456;7.248;2022-07-29T15:08:52;23.20;99.90
2935;DHT22;2462;51.456;7.248;2022-07-29T15:11:17;23.20;99.90
2935;DHT22;2462;51.456;7.248;2022-07-29T15:13:43;23.20;99.90
2935;DHT22;2462;51.456;7.248;2022-07-29T15:16:08;23.20;99.90
2935;DHT22;2462;51.456;7.248;2022-07-29T15:18:34;23.20;99.90
2935;DHT22;2462;51.456;7.248;2022-07-29T15:21:00;23.10;99.90
2935;DHT22;2462;51.456;7.248;2022-07-29T15:23:27;23.10;99.90
2935;DHT22;2462;51.456;7.248;2022-07-29T15:25:53;23.10;99.90
2935;DHT22;2462;51.456;7.248;2022-07-29T15:28:18;23.10;99.90
2935;DHT22;2462;51.456;7.248;2022-07-29T15:30:44;23.10;99.90
2935;DHT22;2462;51.456;7.248;2022-07-29T15:33:09;23.00;99.90
2935;DHT22;2462;51.456;7.248;2022-07-29T15:35:36;23.00;99.90
2935;DHT22;2462;51.456;7.248;2022-07-29T15:38:02;23.00;99.90
2935;DHT22;2462;51.456;7.248;2022-07-29T15:40:28;23.00;99.90
2935;DHT22;2462;51.456;7.248;2022-07-29T15:42:53;23.00;99.90
2935;DHT22;2462;51.456;7.248;2022-07-29T15:45:19;23.00;99.90
2935;DHT22;2462;51.456;7.248;2022-07-29T15:47:44;23.00;99.90
2935;DHT22;2462;51.456;7.248;2022-07-29T15:50:10;22.90;99.90
2935;DHT22;2462;51.456;7.248;2022-07-29T15:52:40;22.90;99.90
2935;DHT22;2462;51.456;7.248;2022-07-29T15:55:06;23.00;99.90
2935;DHT22;2462;51.456;7.248;2022-07-29T15:57:32;23.00;99.90
2935;DHT22;2462;51.456;7.248;2022-07-29T15:59:58;22.90;99.90
2935;DHT22;2462;51.456;7.248;2022-07-29T16:02:23;23.00;99.90
2935;DHT22;2462;51.456;7.248;2022-07-29T16:04:49;23.00;99.90
2935;DHT22;2462;51.456;7.248;2022-07-29T16:07:14;23.00;99.90
2935;DHT22;2462;51.456;7.248;2022-07-29T16:09:41;23.00;99.90
2935;DHT22;2462;51.456;7.248;2022-07-29T16:12:06;23.00;99.90
2935;DHT22;2462;51.456;7.248;2022-07-29T16:14:33;23.00;99.90
2935;DHT22;2462;51.456;7.248;2022-07-29T16:16:58;23.00;99.90
2935;DHT22;2462;51.456;7.248;2022-07-29T16:19:30;23.00;99.90
2935;DHT22;2462;51.456;7.248;2022-07-29T16:21:56;23.00;99.90
2935;DHT22;2462;51.456;7.248;2022-07-29T16:24:21;23.00;99.90
2935;DHT22;2462;51.456;7.248;2022-07-29T16:26:48;23.00;99.90
2935;DHT22;2462;51.456;7.248;2022-07-29T16:29:14;23.00;99.90
2935;DHT22;2462;51.456;7.248;2022-07-29T16:31:42;22.90;99.90
2935;DHT22;2462;51.456;7.248;2022-07-29T16:34:08;22.90;99.90
2935;DHT22;2462;51.456;7.248;2022-07-29T16:36:33;22.90;99.90
2935;DHT22;2462;51.456;7.248;2022-07-29T16:38:59;22.90;99.90
2935;DHT22;2462;51.456;7.248;2022-07-29T16:41:24;22.90;99.90
2935;DHT22;2462;51.456;7.248;2022-07-29T16:43:50;22.90;99.90
2935;DHT22;2462;51.456;7.248;2022-07-29T16:46:16;22.80;99.90
2935;DHT22;2462;51.456;7.248;2022-07-29T16:48:41;22.80;99.90
2935;DHT22;2462;51.456;7.248;2022-07-29T16:51:07;22.80;99.90
2935;DHT22;2462;51.456;7.248;2022-07-29T16:53:33;22.80;99.90